sensor_id;sensor_type;location;lat;lon;timestamp;temperature;humidity
19090;DHT22;9677;50.656;13.064;2023-11-21T00:01:23;11.80;60.60
19090;DHT22;9677;50.656;13.064;2023-11-21T00:03:51;11.70;60.50
19090;DHT22;9677;50.656;13.064;2023-11-21T00:06:21;11.80;60.60
19090;DHT22;9677;50.656;13.064;2023-11-21T00:08:49;11.70;60.60
19090;DHT22;9677;50.656;13.064;2023-11-21T00:11:17;11.70;60.60
19090;DHT22;9677;50.656;13.064;2023-11-21T00:13:45;11.70;60.60
19090;DHT22;9677;50.656;13.064;2023-11-21T00:16:18;11.70;60.60
19090;DHT22;9677;50.656;13.064;2023-11-21T00:18:46;11.70;60.60
19090;DHT22;9677;50.656;13.064;2023-11-21T00:21:14;11.70;60.70
19090;DHT22;9677;50.656;13.064;2023-11-21T00:23:43;11.70;60.60
19090;DHT22;9677;50.656;13.064;2023-11-21T00:26:11;11.70;60.60
19090;DHT22;9677;50.656;13.064;2023-11-21T00:28:39;11.60;60.70
19090;DHT22;9677;50.656;13.064;2023-11-21T00:31:08;11.60;60.70
19090;DHT22;9677;50.656;13.064;2023-11-21T00:33:37;11.60;60.70
19090;DHT22;9677;50.656;13.064;2023-11-21T00:36:06;11.60;60.70
19090;DHT22;9677;50.656;13.064;2023-11-21T00:38:36;11.60;60.70
19090;DHT22;9677;50.656;13.064;2023-11-21T00:41:06;11.60;60.70
19090;DHT22;9677;50.656;13.064;2023-11-21T00:43:35;11.60;60.70
19090;DHT22;9677;50.656;13.064;2023-11-21T00:46:04;11.60;60.80
19090;DHT22;9677;50.656;13.064;2023-11-21T00:48:34;11.60;60.80
19090;DHT22;9677;50.656;13.064;2023-11-21T00:51:04;11.60;60.80
19090;DHT22;9677;50.656;13.064;2023-11-21T00:53:33;11.50;60.80
19090;DHT22;9677;50.656;13.064;2023-11-21T00:56:01;11.60;60.80
19090;DHT22;9677;50.656;13.064;2023-11-21T00:58:29;11.50;60.80
19090;DHT22;9677;50.656;13.064;2023-11-21T01:00:58;11.60;60.80
19090;DHT22;9677;50.656;13.064;2023-11-21T01:03:26;11.50;60.70
19090;DHT22;9677;50.656;13.064;2023-11-21T01:05:54;11.60;60.70
19090;DHT22;9677;50.656;13.064;2023-11-21T01:08:23;11.50;60.70
19090;DHT22;9677;50.656;13.064;2023-11-21T01:10:52;11.50;60.70
19090;DHT22;9677;50.656;13.064;2023-11-21T01:13:20;11.50;60.80
19090;DHT22;9677;50.656;13.064;2023-11-21T01:15:49;11.80;61.00
19090;DHT22;9677;50.656;13.064;2023-11-21T01:18:17;11.40;60.70
19090;DHT22;9677;50.656;13.064;2023-11-21T01:20:45;11.50;60.80
19090;DHT22;9677;50.656;13.064;2023-11-21T01:23:13;11.50;60.80
19090;DHT22;9677;50.656;13.064;2023-11-21T01:25:43;11.40;60.80
19090;DHT22;9677;50.656;13.064;2023-11-21T01:28:12;11.40;60.90
19090;DHT22;9677;50.656;13.064;2023-11-21T01:30:40;11.40;60.90
19090;DHT22;9677;50.656;13.064;2023-11-21T01:33:08;11.40;61.00
19090;DHT22;9677;50.656;13.064;2023-11-21T01:35:37;11.40;61.10
19090;DHT22;9677;50.656;13.064;2023-11-21T01:38:05;11.40;61.90
19090;DHT22;9677;50.656;13.064;2023-11-21T01:40:34;11.40;61.10
19090;DHT22;9677;50.656;13.064;2023-11-21T01:43:04;11.40;61.20
19090;DHT22;9677;50.656;13.064;2023-11-21T01:45:32;11.40;61.20
19090;DHT22;9677;50.656;13.064;2023-11-21T01:48:01;11.30;61.10
19090;DHT22;9677;50.656;13.064;2023-11-21T01:50:30;11.40;61.20
19090;DHT22;9677;50.656;13.064;2023-11-21T01:52:59;11.40;61.20
19090;DHT22;9677;50.656;13.064;2023-11-21T01:55:28;11.40;61.20
19090;DHT22;9677;50.656;13.064;2023-11-21T01:57:57;11.30;61.10
19090;DHT22;9677;50.656;13.064;2023-11-21T02:00:26;11.30;61.20
19090;DHT22;9677;50.656;13.064;2023-11-21T02:02:56;11.30;61.10
19090;DHT22;9677;50.656;13.064;2023-11-21T02:05:26;11.30;61.20
19090;DHT22;9677;50.656;13.064;2023-11-21T02:07:57;11.30;61.20
19090;DHT22;9677;50.656;13.064;2023-11-21T02:10:27;11.30;61.20
19090;DHT22;9677;50.656;13.064;2023-11-21T02:12:57;11.30;61.20
19090;DHT22;9677;50.656;13.064;2023-11-21T02:15:28;11.30;61.20
19090;DHT22;9677;50.656;13.064;2023-11-21T02:17:57;11.30;61.30
19090;DHT22;9677;50.656;13.064;2023-11-21T02:20:27;11.30;61.30
19090;DHT22;9677;50.656;13.064;2023-11-21T02:22:58;11.30;61.20
19090;DHT22;9677;50.656;13.064;2023-11-21T02:25:28;11.30;61.30
19090;DHT22;9677;50.656;13.064;2023-11-21T02:27:59;11.30;61.30
19090;DHT22;9677;50.656;13.064;2023-11-21T02:30:29;11.30;61.30
19090;DHT22;9677;50.656;13.064;2023-11-21T02:32:59;11.30;61.30
19090;DHT22;9677;50.656;13.064;2023-11-21T02:35:27;11.30;61.30
19090;DHT22;9677;50.656;13.064;2023-11-21T02:38:00;11.30;61.20
19090;DHT22;9677;50.656;13.064;2023-11-21T02:40:28;11.30;61.20
19090;DHT22;9677;50.656;13.064;2023-11-21T02:42:57;11.30;61.20
19090;DHT22;9677;50.656;13.064;2023-11-21T02:45:26;11.30;61.10
19090;DHT22;9677;50.656;13.064;2023-11-21T02:47:54;11.30;61.20
19090;DHT22;9677;50.656;13.064;2023-11-21T02:50:25;11.30;61.10
19090;DHT22;9677;50.656;13.064;2023-11-21T02:52:54;11.30;61.20
19090;DHT22;9677;50.656;13.064;2023-11-21T02:55:25;11.30;61.10
19090;DHT22;9677;50.656;13.064;2023-11-21T02:57:54;11.30;61.30
19090;DHT22;9677;50.656;13.064;2023-11-21T03:00:23;11.30;61.30
19090;DHT22;9677;50.656;13.064;2023-11-21T03:02:53;11.30;61.40
19090;DHT22;9677;50.656;13.064;2023-11-21T03:05:22;11.20;61.30
19090;DHT22;9677;50.656;13.064;2023-11-21T03:07:50;11.20;61.30
19090;DHT22;9677;50.656;13.064;2023-11-21T03:10:18;11.30;61.50
19090;DHT22;9677;50.656;13.064;2023-11-21T03:12:48;11.30;61.50
19090;DHT22;9677;50.656;13.064;2023-11-21T03:15:16;11.60;61.50
19090;DHT22;9677;50.656;13.064;2023-11-21T03:17:44;11.20;61.20
19090;DHT22;9677;50.656;13.064;2023-11-21T03:20:13;11.20;61.20
19090;DHT22;9677;50.656;13.064;2023-11-21T03:22:43;11.20;61.20
19090;DHT22;9677;50.656;13.064;2023-11-21T03:25:12;11.20;61.20
19090;DHT22;9677;50.656;13.064;2023-11-21T03:27:41;11.20;61.30
19090;DHT22;9677;50.656;13.064;2023-11-21T03:30:12;11.20;61.30
19090;DHT22;9677;50.656;13.064;2023-11-21T03:32:41;11.20;61.30
19090;DHT22;9677;50.656;13.064;2023-11-21T03:35:09;11.20;61.40
19090;DHT22;9677;50.656;13.064;2023-11-21T03:37:38;11.20;61.40
19090;DHT22;9677;50.656;13.064;2023-11-21T03:40:09;11.20;61.40
19090;DHT22;9677;50.656;13.064;2023-11-21T03:42:39;11.10;61.40
19090;DHT22;9677;50.656;13.064;2023-11-21T03:45:08;11.10;61.30
19090;DHT22;9677;50.656;13.064;2023-11-21T03:47:41;11.10;61.40
19090;DHT22;9677;50.656;13.064;2023-11-21T03:50:10;11.10;61.40
19090;DHT22;9677;50.656;13.064;2023-11-21T03:52:38;11.10;61.40
19090;DHT22;9677;50.656;13.064;2023-11-21T03:55:07;11.10;61.40
19090;DHT22;9677;50.656;13.064;2023-11-21T03:57:37;11.10;61.50
19090;DHT22;9677;50.656;13.064;2023-11-21T04:00:06;11.10;61.40
19090;DHT22;9677;50.656;13.064;2023-11-21T04:02:41;11.10;61.50
19090;DHT22;9677;50.656;13.064;2023-11-21T04:05:09;11.10;61.40
19090;DHT22;9677;50.656;13.064;2023-11-21T04:07:37;11.10;61.40
19090;DHT22;9677;50.656;13.064;2023-11-21T04:10:07;11.10;61.30
19090;DHT22;9677;50.656;13.064;2023-11-21T04:12:36;11.00;61.40
19090;DHT22;9677;50.656;13.064;2023-11-21T04:15:05;11.00;61.40
19090;DHT22;9677;50.656;13.064;2023-11-21T04:17:36;11.00;62.30
19090;DHT22;9677;50.656;13.064;2023-11-21T04:20:07;11.00;61.50
19090;DHT22;9677;50.656;13.064;2023-11-21T04:22:37;11.00;61.60
19090;DHT22;9677;50.656;13.064;2023-11-21T04:25:09;11.00;61.60
19090;DHT22;9677;50.656;13.064;2023-11-21T04:27:39;11.00;61.60
19090;DHT22;9677;50.656;13.064;2023-11-21T04:30:08;11.00;61.60
19090;DHT22;9677;50.656;13.064;2023-11-21T04:32:38;11.00;61.60
19090;DHT22;9677;50.656;13.064;2023-11-21T04:35:08;11.00;61.60
19090;DHT22;9677;50.656;13.064;2023-11-21T04:37:37;10.90;61.60
19090;DHT22;9677;50.656;13.064;2023-11-21T04:40:06;10.90;61.60
19090;DHT22;9677;50.656;13.064;2023-11-21T04:42:35;10.90;61.60
19090;DHT22;9677;50.656;13.064;2023-11-21T04:45:05;10.90;61.50
19090;DHT22;9677;50.656;13.064;2023-11-21T04:47:36;10.90;61.60
19090;DHT22;9677;50.656;13.064;2023-11-21T04:50:06;10.90;61.60
19090;DHT22;9677;50.656;13.064;2023-11-21T04:52:36;10.90;61.60
19090;DHT22;9677;50.656;13.064;2023-11-21T04:55:05;10.90;61.60
19090;DHT22;9677;50.656;13.064;2023-11-21T04:57:37;10.90;61.60
19090;DHT22;9677;50.656;13.064;2023-11-21T05:00:07;10.80;61.60
19090;DHT22;9677;50.656;13.064;2023-11-21T05:02:37;10.80;62.10
19090;DHT22;9677;50.656;13.064;2023-11-21T05:05:08;10.80;61.60
19090;DHT22;9677;50.656;13.064;2023-11-21T05:07:38;10.80;61.60
19090;DHT22;9677;50.656;13.064;2023-11-21T05:10:08;10.80;61.70
19090;DHT22;9677;50.656;13.064;2023-11-21T05:12:40;10.80;61.70
19090;DHT22;9677;50.656;13.064;2023-11-21T05:15:09;10.80;61.70
19090;DHT22;9677;50.656;13.064;2023-11-21T05:17:40;10.80;61.70
19090;DHT22;9677;50.656;13.064;2023-11-21T05:20:13;10.80;61.70
19090;DHT22;9677;50.656;13.064;2023-11-21T05:22:45;10.70;61.70
19090;DHT22;9677;50.656;13.064;2023-11-21T05:25:13;10.70;61.70
19090;DHT22;9677;50.656;13.064;2023-11-21T05:27:42;10.70;61.80
19090;DHT22;9677;50.656;13.064;2023-11-21T05:30:11;10.70;61.80
19090;DHT22;9677;50.656;13.064;2023-11-21T05:32:40;10.70;61.90
19090;DHT22;9677;50.656;13.064;2023-11-21T05:35:11;10.70;62.00
19090;DHT22;9677;50.656;13.064;2023-11-21T05:37:44;10.70;62.00
19090;DHT22;9677;50.656;13.064;2023-11-21T05:40:13;10.70;61.90
19090;DHT22;9677;50.656;13.064;2023-11-21T05:42:42;10.70;62.00
19090;DHT22;9677;50.656;13.064;2023-11-21T05:45:12;10.70;61.90
19090;DHT22;9677;50.656;13.064;2023-11-21T05:47:41;10.70;61.90
19090;DHT22;9677;50.656;13.064;2023-11-21T05:50:14;10.70;61.80
19090;DHT22;9677;50.656;13.064;2023-11-21T05:52:44;10.60;61.90
19090;DHT22;9677;50.656;13.064;2023-11-21T05:55:13;10.60;61.80
19090;DHT22;9677;50.656;13.064;2023-11-21T05:57:43;10.60;61.80
19090;DHT22;9677;50.656;13.064;2023-11-21T06:00:13;10.60;61.80
19090;DHT22;9677;50.656;13.064;2023-11-21T06:02:47;10.50;61.70
19090;DHT22;9677;50.656;13.064;2023-11-21T06:05:19;10.60;61.90
19090;DHT22;9677;50.656;13.064;2023-11-21T06:07:50;10.50;61.80
19090;DHT22;9677;50.656;13.064;2023-11-21T06:10:20;10.50;61.80
19090;DHT22;9677;50.656;13.064;2023-11-21T06:12:51;10.50;61.90
19090;DHT22;9677;50.656;13.064;2023-11-21T06:15:20;10.50;61.90
19090;DHT22;9677;50.656;13.064;2023-11-21T06:17:50;10.40;61.90
19090;DHT22;9677;50.656;13.064;2023-11-21T06:20:22;10.40;61.90
19090;DHT22;9677;50.656;13.064;2023-11-21T06:22:50;10.40;61.90
19090;DHT22;9677;50.656;13.064;2023-11-21T06:25:20;10.40;62.70
19090;DHT22;9677;50.656;13.064;2023-11-21T06:27:49;10.40;61.90
19090;DHT22;9677;50.656;13.064;2023-11-21T06:30:18;10.40;62.00
19090;DHT22;9677;50.656;13.064;2023-11-21T06:32:47;10.30;61.90
19090;DHT22;9677;50.656;13.064;2023-11-21T06:35:17;10.40;62.10
19090;DHT22;9677;50.656;13.064;2023-11-21T06:37:46;10.30;62.00
19090;DHT22;9677;50.656;13.064;2023-11-21T06:40:17;10.30;62.10
19090;DHT22;9677;50.656;13.064;2023-11-21T06:42:47;10.30;62.10
19090;DHT22;9677;50.656;13.064;2023-11-21T06:45:16;10.30;62.20
19090;DHT22;9677;50.656;13.064;2023-11-21T06:47:44;10.30;62.20
19090;DHT22;9677;50.656;13.064;2023-11-21T06:50:13;10.30;63.00
19090;DHT22;9677;50.656;13.064;2023-11-21T06:52:42;10.30;62.50
19090;DHT22;9677;50.656;13.064;2023-11-21T06:55:12;10.30;62.50
19090;DHT22;9677;50.656;13.064;2023-11-21T06:57:40;10.30;62.60
19090;DHT22;9677;50.656;13.064;2023-11-21T07:00:10;10.30;62.40
19090;DHT22;9677;50.656;13.064;2023-11-21T07:02:39;10.30;62.50
19090;DHT22;9677;50.656;13.064;2023-11-21T07:05:07;10.30;62.40
19090;DHT22;9677;50.656;13.064;2023-11-21T07:07:36;10.30;62.50
19090;DHT22;9677;50.656;13.064;2023-11-21T07:10:05;10.30;62.50
19090;DHT22;9677;50.656;13.064;2023-11-21T07:12:35;10.30;62.50
19090;DHT22;9677;50.656;13.064;2023-11-21T07:15:04;10.30;62.50
19090;DHT22;9677;50.656;13.064;2023-11-21T07:17:36;10.30;62.60
19090;DHT22;9677;50.656;13.064;2023-11-21T07:20:07;10.30;62.50
19090;DHT22;9677;50.656;13.064;2023-11-21T07:22:37;10.30;62.70
19090;DHT22;9677;50.656;13.064;2023-11-21T07:25:06;10.30;62.60
19090;DHT22;9677;50.656;13.064;2023-11-21T07:27:37;10.30;62.70
19090;DHT22;9677;50.656;13.064;2023-11-21T07:30:07;10.40;62.70
19090;DHT22;9677;50.656;13.064;2023-11-21T07:32:37;10.30;62.80
19090;DHT22;9677;50.656;13.064;2023-11-21T07:35:08;10.30;62.80
19090;DHT22;9677;50.656;13.064;2023-11-21T07:37:36;10.40;63.00
19090;DHT22;9677;50.656;13.064;2023-11-21T07:40:06;10.40;62.90
19090;DHT22;9677;50.656;13.064;2023-11-21T07:42:38;10.40;63.00
19090;DHT22;9677;50.656;13.064;2023-11-21T07:45:07;10.40;62.90
19090;DHT22;9677;50.656;13.064;2023-11-21T07:47:36;10.50;63.00
19090;DHT22;9677;50.656;13.064;2023-11-21T07:50:07;10.80;63.20
19090;DHT22;9677;50.656;13.064;2023-11-21T07:52:36;10.50;63.10
19090;DHT22;9677;50.656;13.064;2023-11-21T07:55:05;10.50;63.10
19090;DHT22;9677;50.656;13.064;2023-11-21T07:57:34;10.60;63.20
19090;DHT22;9677;50.656;13.064;2023-11-21T08:00:05;10.60;63.20
19090;DHT22;9677;50.656;13.064;2023-11-21T08:02:39;10.60;63.30
19090;DHT22;9677;50.656;13.064;2023-11-21T08:05:09;10.60;63.30
19090;DHT22;9677;50.656;13.064;2023-11-21T08:07:50;10.70;63.40
19090;DHT22;9677;50.656;13.064;2023-11-21T08:10:19;10.70;63.40
19090;DHT22;9677;50.656;13.064;2023-11-21T08:12:48;10.70;63.30
19090;DHT22;9677;50.656;13.064;2023-11-21T08:15:18;10.80;63.30
19090;DHT22;9677;50.656;13.064;2023-11-21T08:17:47;10.80;63.60
19090;DHT22;9677;50.656;13.064;2023-11-21T08:20:16;10.80;63.40
19090;DHT22;9677;50.656;13.064;2023-11-21T08:22:45;10.90;63.40
19090;DHT22;9677;50.656;13.064;2023-11-21T08:25:15;10.90;63.40
19090;DHT22;9677;50.656;13.064;2023-11-21T08:27:46;10.90;63.20
19090;DHT22;9677;50.656;13.064;2023-11-21T08:30:15;10.90;63.10
19090;DHT22;9677;50.656;13.064;2023-11-21T08:32:47;11.00;63.30
19090;DHT22;9677;50.656;13.064;2023-11-21T08:35:15;11.00;63.20
19090;DHT22;9677;50.656;13.064;2023-11-21T08:37:44;11.00;63.20
19090;DHT22;9677;50.656;13.064;2023-11-21T08:40:12;11.10;63.20
19090;DHT22;9677;50.656;13.064;2023-11-21T08:42:44;11.10;63.20
19090;DHT22;9677;50.656;13.064;2023-11-21T08:45:13;11.10;63.20
19090;DHT22;9677;50.656;13.064;2023-11-21T08:47:41;11.10;63.10
19090;DHT22;9677;50.656;13.064;2023-11-21T08:50:13;11.10;63.00
19090;DHT22;9677;50.656;13.064;2023-11-21T08:52:42;11.20;63.10
19090;DHT22;9677;50.656;13.064;2023-11-21T08:55:12;11.20;63.10
19090;DHT22;9677;50.656;13.064;2023-11-21T08:57:43;11.20;63.00
19090;DHT22;9677;50.656;13.064;2023-11-21T09:00:12;11.20;63.10
19090;DHT22;9677;50.656;13.064;2023-11-21T09:02:44;11.20;63.00
19090;DHT22;9677;50.656;13.064;2023-11-21T09:05:14;11.20;62.90
19090;DHT22;9677;50.656;13.064;2023-11-21T09:07:43;11.20;62.90
19090;DHT22;9677;50.656;13.064;2023-11-21T09:10:13;11.60;63.10
19090;DHT22;9677;50.656;13.064;2023-11-21T09:12:41;11.30;63.00
19090;DHT22;9677;50.656;13.064;2023-11-21T09:15:10;11.30;63.00
19090;DHT22;9677;50.656;13.064;2023-11-21T09:17:39;11.30;62.90
19090;DHT22;9677;50.656;13.064;2023-11-21T09:20:08;11.00;62.70
19090;DHT22;9677;50.656;13.064;2023-11-21T09:22:39;11.30;62.90
19090;DHT22;9677;50.656;13.064;2023-11-21T09:25:08;11.30;62.80
19090;DHT22;9677;50.656;13.064;2023-11-21T09:27:36;11.30;62.90
19090;DHT22;9677;50.656;13.064;2023-11-21T09:30:06;11.40;62.90
19090;DHT22;9677;50.656;13.064;2023-11-21T09:32:37;11.40;62.90
19090;DHT22;9677;50.656;13.064;2023-11-21T09:35:07;11.40;62.90
19090;DHT22;9677;50.656;13.064;2023-11-21T09:37:38;11.30;62.80
19090;DHT22;9677;50.656;13.064;2023-11-21T09:40:10;11.40;62.90
19090;DHT22;9677;50.656;13.064;2023-11-21T09:42:46;11.40;62.90
19090;DHT22;9677;50.656;13.064;2023-11-21T09:45:23;11.70;63.00
19090;DHT22;9677;50.656;13.064;2023-11-21T09:47:54;11.40;62.90
19090;DHT22;9677;50.656;13.064;2023-11-21T09:50:24;11.40;62.90
19090;DHT22;9677;50.656;13.064;2023-11-21T09:53:08;11.40;62.90
19090;DHT22;9677;50.656;13.064;2023-11-21T09:55:43;11.40;63.10
19090;DHT22;9677;50.656;13.064;2023-11-21T09:58:12;11.40;62.90
19090;DHT22;9677;50.656;13.064;2023-11-21T10:00:42;11.40;62.90
19090;DHT22;9677;50.656;13.064;2023-11-21T10:03:11;11.40;63.00
19090;DHT22;9677;50.656;13.064;2023-11-21T10:05:43;11.40;63.00
19090;DHT22;9677;50.656;13.064;2023-11-21T10:08:14;11.40;62.90
19090;DHT22;9677;50.656;13.064;2023-11-21T10:10:43;11.40;62.90
19090;DHT22;9677;50.656;13.064;2023-11-21T10:13:13;11.40;62.90
19090;DHT22;9677;50.656;13.064;2023-11-21T10:15:44;11.40;63.00
19090;DHT22;9677;50.656;13.064;2023-11-21T10:18:16;11.40;63.00
19090;DHT22;9677;50.656;13.064;2023-11-21T10:20:45;11.40;63.00
19090;DHT22;9677;50.656;13.064;2023-11-21T10:23:21;11.40;62.90
19090;DHT22;9677;50.656;13.064;2023-11-21T10:25:50;11.40;63.00
19090;DHT22;9677;50.656;13.064;2023-11-21T10:28:20;11.50;63.00
19090;DHT22;9677;50.656;13.064;2023-11-21T10:30:49;11.40;62.90
19090;DHT22;9677;50.656;13.064;2023-11-21T10:33:17;11.50;63.00
19090;DHT22;9677;50.656;13.064;2023-11-21T10:35:46;11.40;62.90
19090;DHT22;9677;50.656;13.064;2023-11-21T10:38:18;11.40;63.00
19090;DHT22;9677;50.656;13.064;2023-11-21T10:40:49;11.40;63.00
19090;DHT22;9677;50.656;13.064;2023-11-21T10:43:18;11.50;63.10
19090;DHT22;9677;50.656;13.064;2023-11-21T10:45:47;11.50;63.10
19090;DHT22;9677;50.656;13.064;2023-11-21T10:48:16;11.50;63.10
19090;DHT22;9677;50.656;13.064;2023-11-21T10:50:45;11.50;63.10
19090;DHT22;9677;50.656;13.064;2023-11-21T10:53:14;11.50;63.20
19090;DHT22;9677;50.656;13.064;2023-11-21T10:55:43;11.50;63.20
19090;DHT22;9677;50.656;13.064;2023-11-21T10:58:14;11.50;63.20
19090;DHT22;9677;50.656;13.064;2023-11-21T11:00:43;11.60;63.20
19090;DHT22;9677;50.656;13.064;2023-11-21T11:03:13;11.60;63.20
19090;DHT22;9677;50.656;13.064;2023-11-21T11:05:44;11.60;63.20
19090;DHT22;9677;50.656;13.064;2023-11-21T11:08:20;11.60;63.10
19090;DHT22;9677;50.656;13.064;2023-11-21T11:10:55;11.60;63.20
19090;DHT22;9677;50.656;13.064;2023-11-21T11:13:24;11.60;63.20
19090;DHT22;9677;50.656;13.064;2023-11-21T11:15:58;11.60;63.10
19090;DHT22;9677;50.656;13.064;2023-11-21T11:18:28;11.60;63.30
19090;DHT22;9677;50.656;13.064;2023-11-21T11:21:05;11.60;63.10
19090;DHT22;9677;50.656;13.064;2023-11-21T11:23:46;11.60;63.20
19090;DHT22;9677;50.656;13.064;2023-11-21T11:26:30;11.60;63.30
19090;DHT22;9677;50.656;13.064;2023-11-21T11:32:03;11.60;63.20
19090;DHT22;9677;50.656;13.064;2023-11-21T11:34:43;11.60;63.30
19090;DHT22;9677;50.656;13.064;2023-11-21T11:37:14;11.60;63.10
19090;DHT22;9677;50.656;13.064;2023-11-21T11:39:43;11.60;63.00
19090;DHT22;9677;50.656;13.064;2023-11-21T11:42:13;11.60;62.80
19090;DHT22;9677;50.656;13.064;2023-11-21T11:44:51;11.60;63.00
19090;DHT22;9677;50.656;13.064;2023-11-21T11:47:23;11.60;63.10
19090;DHT22;9677;50.656;13.064;2023-11-21T11:50:05;11.60;63.10
19090;DHT22;9677;50.656;13.064;2023-11-21T11:52:37;11.60;63.10
19090;DHT22;9677;50.656;13.064;2023-11-21T11:55:08;11.70;63.10
19090;DHT22;9677;50.656;13.064;2023-11-21T11:57:41;11.50;62.90
19090;DHT22;9677;50.656;13.064;2023-11-21T12:00:18;11.50;62.80
19090;DHT22;9677;50.656;13.064;2023-11-21T12:02:51;11.50;63.00
19090;DHT22;9677;50.656;13.064;2023-11-21T12:05:21;11.50;62.80
19090;DHT22;9677;50.656;13.064;2023-11-21T12:07:51;11.50;62.90
19090;DHT22;9677;50.656;13.064;2023-11-21T12:10:22;11.40;62.90
19090;DHT22;9677;50.656;13.064;2023-11-21T12:12:53;11.40;62.80
19090;DHT22;9677;50.656;13.064;2023-11-21T12:15:24;11.40;62.80
19090;DHT22;9677;50.656;13.064;2023-11-21T12:17:53;11.30;62.70
19090;DHT22;9677;50.656;13.064;2023-11-21T12:20:23;11.70;62.90
19090;DHT22;9677;50.656;13.064;2023-11-21T12:22:53;11.50;62.90
19090;DHT22;9677;50.656;13.064;2023-11-21T12:25:23;11.30;62.80
19090;DHT22;9677;50.656;13.064;2023-11-21T12:27:56;11.20;62.80
19090;DHT22;9677;50.656;13.064;2023-11-21T12:30:27;11.20;62.80
19090;DHT22;9677;50.656;13.064;2023-11-21T12:32:59;11.10;62.90
19090;DHT22;9677;50.656;13.064;2023-11-21T12:35:28;11.10;62.90
19090;DHT22;9677;50.656;13.064;2023-11-21T12:38:02;11.10;62.90
19090;DHT22;9677;50.656;13.064;2023-11-21T12:40:31;11.10;62.90
19090;DHT22;9677;50.656;13.064;2023-11-21T12:43:00;11.00;62.90
19090;DHT22;9677;50.656;13.064;2023-11-21T12:45:32;11.00;62.90
19090;DHT22;9677;50.656;13.064;2023-11-21T12:48:02;10.90;62.90
19090;DHT22;9677;50.656;13.064;2023-11-21T12:50:36;10.90;62.90
19090;DHT22;9677;50.656;13.064;2023-11-21T12:53:06;11.10;63.00
19090;DHT22;9677;50.656;13.064;2023-11-21T12:55:37;10.90;62.90
19090;DHT22;9677;50.656;13.064;2023-11-21T12:58:07;10.80;62.80
19090;DHT22;9677;50.656;13.064;2023-11-21T13:00:42;10.80;63.50
19090;DHT22;9677;50.656;13.064;2023-11-21T13:03:12;10.80;62.80
19090;DHT22;9677;50.656;13.064;2023-11-21T13:05:45;10.70;62.90
19090;DHT22;9677;50.656;13.064;2023-11-21T13:08:18;10.70;63.00
19090;DHT22;9677;50.656;13.064;2023-11-21T13:10:50;10.70;63.00
19090;DHT22;9677;50.656;13.064;2023-11-21T13:13:21;10.60;63.10
19090;DHT22;9677;50.656;13.064;2023-11-21T13:15:53;10.60;63.00
19090;DHT22;9677;50.656;13.064;2023-11-21T13:18:24;10.60;63.10
19090;DHT22;9677;50.656;13.064;2023-11-21T13:20:54;10.50;63.00
19090;DHT22;9677;50.656;13.064;2023-11-21T13:23:23;10.50;63.10
19090;DHT22;9677;50.656;13.064;2023-11-21T13:25:52;10.50;63.20
19090;DHT22;9677;50.656;13.064;2023-11-21T13:28:31;10.50;63.30
19090;DHT22;9677;50.656;13.064;2023-11-21T13:31:03;10.50;63.30
19090;DHT22;9677;50.656;13.064;2023-11-21T13:33:38;10.50;63.40
19090;DHT22;9677;50.656;13.064;2023-11-21T13:36:09;10.50;63.50
19090;DHT22;9677;50.656;13.064;2023-11-21T13:38:40;10.60;63.70
19090;DHT22;9677;50.656;13.064;2023-11-21T13:41:10;10.50;63.60
19090;DHT22;9677;50.656;13.064;2023-11-21T13:43:41;10.50;63.60
19090;DHT22;9677;50.656;13.064;2023-11-21T13:46:13;10.50;64.30
19090;DHT22;9677;50.656;13.064;2023-11-21T13:48:44;10.50;64.40
19090;DHT22;9677;50.656;13.064;2023-11-21T13:51:18;10.50;63.50
19090;DHT22;9677;50.656;13.064;2023-11-21T13:53:48;10.50;63.50
19090;DHT22;9677;50.656;13.064;2023-11-21T13:56:18;10.50;63.50
19090;DHT22;9677;50.656;13.064;2023-11-21T13:58:51;10.50;63.60
19090;DHT22;9677;50.656;13.064;2023-11-21T14:01:23;10.50;63.50
19090;DHT22;9677;50.656;13.064;2023-11-21T14:04:14;10.50;63.50
19090;DHT22;9677;50.656;13.064;2023-11-21T14:06:58;10.50;63.40
19090;DHT22;9677;50.656;13.064;2023-11-21T14:09:37;10.50;63.40
19090;DHT22;9677;50.656;13.064;2023-11-21T14:12:11;10.50;63.30
19090;DHT22;9677;50.656;13.064;2023-11-21T14:14:41;10.50;63.30
19090;DHT22;9677;50.656;13.064;2023-11-21T14:17:11;10.50;63.20
19090;DHT22;9677;50.656;13.064;2023-11-21T14:19:40;10.50;63.20
19090;DHT22;9677;50.656;13.064;2023-11-21T14:22:11;10.40;64.00
19090;DHT22;9677;50.656;13.064;2023-11-21T14:24:39;10.40;63.20
19090;DHT22;9677;50.656;13.064;2023-11-21T14:27:12;10.40;63.20
19090;DHT22;9677;50.656;13.064;2023-11-21T14:29:42;10.40;63.30
19090;DHT22;9677;50.656;13.064;2023-11-21T14:32:13;10.40;63.20
19090;DHT22;9677;50.656;13.064;2023-11-21T14:34:42;10.40;63.20
19090;DHT22;9677;50.656;13.064;2023-11-21T14:37:14;10.40;63.20
19090;DHT22;9677;50.656;13.064;2023-11-21T14:39:42;10.40;63.20
19090;DHT22;9677;50.656;13.064;2023-11-21T14:42:13;10.40;63.20
19090;DHT22;9677;50.656;13.064;2023-11-21T14:44:43;10.30;63.00
19090;DHT22;9677;50.656;13.064;2023-11-21T14:47:13;10.30;63.00
19090;DHT22;9677;50.656;13.064;2023-11-21T14:49:44;10.30;62.90
19090;DHT22;9677;50.656;13.064;2023-11-21T14:52:21;10.30;62.90
19090;DHT22;9677;50.656;13.064;2023-11-21T14:55:03;10.20;62.80
19090;DHT22;9677;50.656;13.064;2023-11-21T14:57:52;10.20;62.90
19090;DHT22;9677;50.656;13.064;2023-11-21T15:00:20;10.20;63.00
19090;DHT22;9677;50.656;13.064;2023-11-21T15:03:12;10.10;63.00
19090;DHT22;9677;50.656;13.064;2023-11-21T15:06:05;10.10;62.90
19090;DHT22;9677;50.656;13.064;2023-11-21T15:08:49;10.10;62.90
19090;DHT22;9677;50.656;13.064;2023-11-21T15:11:26;10.00;62.70
19090;DHT22;9677;50.656;13.064;2023-11-21T15:13:58;10.00;62.60
19090;DHT22;9677;50.656;13.064;2023-11-21T15:16:27;9.90;62.60
19090;DHT22;9677;50.656;13.064;2023-11-21T15:18:56;9.90;62.60
19090;DHT22;9677;50.656;13.064;2023-11-21T15:21:25;9.90;62.60
19090;DHT22;9677;50.656;13.064;2023-11-21T15:23:53;9.80;62.60
19090;DHT22;9677;50.656;13.064;2023-11-21T15:26:22;9.80;62.60
19090;DHT22;9677;50.656;13.064;2023-11-21T15:28:50;9.70;62.60
19090;DHT22;9677;50.656;13.064;2023-11-21T15:31:18;9.70;62.50
19090;DHT22;9677;50.656;13.064;2023-11-21T15:33:51;9.60;62.50
19090;DHT22;9677;50.656;13.064;2023-11-21T15:36:21;9.50;62.60
19090;DHT22;9677;50.656;13.064;2023-11-21T15:38:50;9.50;62.70
19090;DHT22;9677;50.656;13.064;2023-11-21T15:41:18;9.50;62.70
19090;DHT22;9677;50.656;13.064;2023-11-21T15:43:46;9.40;62.70
19090;DHT22;9677;50.656;13.064;2023-11-21T15:46:15;9.40;62.70
19090;DHT22;9677;50.656;13.064;2023-11-21T15:48:44;9.40;62.70
19090;DHT22;9677;50.656;13.064;2023-11-21T15:51:17;9.70;62.70
19090;DHT22;9677;50.656;13.064;2023-11-21T15:53:47;9.30;62.40
19090;DHT22;9677;50.656;13.064;2023-11-21T15:56:15;9.20;62.40